PWSweather.com
Personal Weather Stations
Station Observations
KAZPHOEN90
RayThunderhill, Phoenix, AZ

RayThunderhillPhoenix, AZ

Lat: 33.312, Lon: -112.029

Elevation: 1260

Station Type: Davis Vantage VUE

High Low Average
Temperature 115.9°F46.6°F 84.5°F29.2°F 101.5°F38.6°F
Dew Point 52.2°F11.2°F 27.4°F-2.6°F 44.0°F6.7°F
Winds 4.4 mph W7.1 mph W Calm Calm 0.8 mph 1.3 mph
Wind Gusts 8.0 mph12.9 mph -- 1.9 mph3.1 mph
Humidity 31% 5% 16%
Pressure 29.66 in1004.40 in 29.50 in999.00 in -
Precipitation 0.00 in0.00 in - -
Hour Temp Dew Point Humidity Winds Wind Gusts Pressure Precip Precip Rate Daily Precip Total
12:00 AM 97.8°F36.6°C 45.6°F7.6°C 17% 0.9 mph SE1.4 kmh SE 1.0 mph1.6 kmh 29.58 in1001.7 mb - 0.00 in0.0 mm 0.00 in0.0 mm
12:15 AM 95.8°F35.4°C 46.9°F8.3°C 19% Calm Calm -- 29.58 in1001.7 mb - 0.00 in0.0 mm 0.00 in0.0 mm
12:30 AM 94.7°F34.8°C 46.0°F7.8°C 19% Calm Calm 1.0 mph1.6 kmh 29.58 in1001.7 mb - 0.00 in0.0 mm 0.00 in0.0 mm
12:45 AM 93.8°F34.3°C 46.7°F8.2°C 20% Calm Calm -- 29.58 in1001.7 mb - 0.00 in0.0 mm 0.00 in0.0 mm
01:00 AM 93.9°F34.4°C 46.8°F8.2°C 20% 0.1 mph ENE0.2 kmh ENE 1.0 mph1.6 kmh 29.58 in1001.7 mb - 0.00 in0.0 mm 0.00 in0.0 mm
01:15 AM 93.1°F33.9°C 47.3°F8.5°C 21% Calm Calm -- 29.58 in1001.7 mb - 0.00 in0.0 mm 0.00 in0.0 mm
01:30 AM 92.4°F33.6°C 48.0°F8.9°C 22% Calm Calm -- 29.58 in1001.7 mb - 0.00 in0.0 mm 0.00 in0.0 mm
01:45 AM 92.1°F33.4°C 47.8°F8.8°C 22% Calm Calm -- 29.57 in1001.4 mb - 0.00 in0.0 mm 0.00 in0.0 mm
02:00 AM 92.6°F33.7°C 48.2°F9.0°C 22% 0.8 mph N1.3 kmh N 3.0 mph4.8 kmh 29.57 in1001.4 mb - 0.00 in0.0 mm 0.00 in0.0 mm
02:15 AM 92.2°F33.4°C 47.9°F8.8°C 22% Calm Calm -- 29.57 in1001.4 mb - 0.00 in0.0 mm 0.00 in0.0 mm
02:30 AM 91.3°F32.9°C 48.3°F9.1°C 23% Calm Calm -- 29.57 in1001.4 mb - 0.00 in0.0 mm 0.00 in0.0 mm
02:45 AM 90.1°F32.3°C 48.4°F9.1°C 24% Calm Calm -- 29.57 in1001.4 mb - 0.00 in0.0 mm 0.00 in0.0 mm
03:00 AM 89.0°F31.7°C 49.7°F9.8°C 26% Calm Calm -- 29.57 in1001.4 mb - 0.00 in0.0 mm 0.00 in0.0 mm
03:15 AM 89.1°F31.7°C 48.7°F9.3°C 25% Calm Calm -- 29.57 in1001.4 mb - 0.00 in0.0 mm 0.00 in0.0 mm
03:30 AM 87.6°F30.9°C 49.5°F9.7°C 27% Calm Calm -- 29.58 in1001.7 mb - 0.00 in0.0 mm 0.00 in0.0 mm
03:45 AM 87.5°F30.8°C 50.4°F10.2°C 28% Calm Calm 1.0 mph1.6 kmh 29.57 in1001.4 mb - 0.00 in0.0 mm 0.00 in0.0 mm
04:00 AM 87.0°F30.6°C 50.0°F10.0°C 28% Calm Calm -- 29.59 in1002.0 mb - 0.00 in0.0 mm 0.00 in0.0 mm
04:15 AM 85.9°F29.9°C 50.0°F10.0°C 29% Calm Calm -- 29.59 in1002.0 mb - 0.00 in0.0 mm 0.00 in0.0 mm
04:30 AM 84.8°F29.3°C 50.8°F10.4°C 31% Calm Calm -- 29.59 in1002.0 mb - 0.00 in0.0 mm 0.00 in0.0 mm
04:45 AM 84.8°F29.3°C 50.8°F10.4°C 31% Calm Calm -- 29.59 in1002.0 mb - 0.00 in0.0 mm 0.00 in0.0 mm
05:00 AM 84.5°F29.2°C 49.6°F9.8°C 30% Calm Calm -- 29.59 in1002.0 mb - 0.00 in0.0 mm 0.00 in0.0 mm
05:15 AM 85.4°F29.7°C 49.5°F9.7°C 29% 0.2 mph NNE0.3 kmh NNE -- 29.59 in1002.0 mb - 0.00 in0.0 mm 0.00 in0.0 mm
05:30 AM 85.0°F29.4°C 50.1°F10.1°C 30% Calm Calm -- 29.60 in1002.4 mb - 0.00 in0.0 mm 0.00 in0.0 mm
05:45 AM 84.7°F29.3°C 50.8°F10.4°C 31% Calm Calm -- 29.61 in1002.7 mb - 0.00 in0.0 mm 0.00 in0.0 mm
06:00 AM 86.1°F30.1°C 50.1°F10.1°C 29% 0.1 mph N0.2 kmh N 1.0 mph1.6 kmh 29.61 in1002.7 mb - 0.00 in0.0 mm 0.00 in0.0 mm
06:15 AM 86.4°F30.2°C 50.4°F10.2°C 29% 0.1 mph NNW0.2 kmh NNW 1.0 mph1.6 kmh 29.61 in1002.7 mb - 0.00 in0.0 mm 0.00 in0.0 mm
06:30 AM 87.2°F30.7°C 50.1°F10.1°C 28% 0.3 mph NNE0.5 kmh NNE 1.0 mph1.6 kmh 29.62 in1003.0 mb - 0.00 in0.0 mm 0.00 in0.0 mm
06:45 AM 89.2°F31.8°C 50.8°F10.4°C 27% 0.2 mph NNW0.3 kmh NNW 1.0 mph1.6 kmh 29.62 in1003.0 mb - 0.00 in0.0 mm 0.00 in0.0 mm
07:00 AM 90.7°F32.6°C 50.0°F10.0°C 25% 0.6 mph NNE1.0 kmh NNE 1.0 mph1.6 kmh 29.62 in1003.0 mb - 0.00 in0.0 mm 0.00 in0.0 mm
07:15 AM 92.0°F33.3°C 52.2°F11.2°C 26% 0.5 mph ENE0.8 kmh ENE 2.0 mph3.2 kmh 29.63 in1003.4 mb - 0.00 in0.0 mm 0.00 in0.0 mm
07:30 AM 93.0°F33.9°C 50.9°F10.5°C 24% Calm Calm 1.0 mph1.6 kmh 29.63 in1003.4 mb - 0.00 in0.0 mm 0.00 in0.0 mm
07:45 AM 94.5°F34.7°C 52.2°F11.2°C 24% Calm Calm -- 29.64 in1003.7 mb - 0.00 in0.0 mm 0.00 in0.0 mm
08:00 AM 95.3°F35.2°C 50.5°F10.3°C 22% Calm Calm -- 29.65 in1004.1 mb - 0.00 in0.0 mm 0.00 in0.0 mm
08:15 AM 96.7°F35.9°C 50.3°F10.2°C 21% 0.1 mph ENE0.2 kmh ENE 1.0 mph1.6 kmh 29.65 in1004.1 mb - 0.00 in0.0 mm 0.00 in0.0 mm
08:30 AM 97.8°F36.6°C 51.2°F10.7°C 21% 0.3 mph N0.5 kmh N 1.0 mph1.6 kmh 29.66 in1004.4 mb - 0.00 in0.0 mm 0.00 in0.0 mm
08:45 AM 97.8°F36.6°C 51.2°F10.7°C 21% Calm Calm 1.0 mph1.6 kmh 29.65 in1004.1 mb - 0.00 in0.0 mm 0.00 in0.0 mm
09:00 AM 98.5°F36.9°C 49.2°F9.6°C 19% Calm Calm -- 29.65 in1004.1 mb - 0.00 in0.0 mm 0.00 in0.0 mm
09:15 AM 98.8°F37.1°C 49.4°F9.7°C 19% 0.2 mph ESE0.3 kmh ESE 1.0 mph1.6 kmh 29.65 in1004.1 mb - 0.00 in0.0 mm 0.00 in0.0 mm
09:30 AM 100.6°F38.1°C 49.4°F9.7°C 18% 0.2 mph NNW0.3 kmh NNW -- 29.64 in1003.7 mb - 0.00 in0.0 mm 0.00 in0.0 mm
09:45 AM 101.7°F38.7°C 48.8°F9.3°C 17% 1.2 mph N1.9 kmh N 3.0 mph4.8 kmh 29.64 in1003.7 mb - 0.00 in0.0 mm 0.00 in0.0 mm
10:00 AM 102.5°F39.2°C 49.4°F9.7°C 17% 2.1 mph SE3.4 kmh SE 3.0 mph4.8 kmh 29.65 in1004.1 mb - 0.00 in0.0 mm 0.00 in0.0 mm
10:15 AM 103.2°F39.6°C 50.0°F10.0°C 17% 0.4 mph ENE0.6 kmh ENE 3.0 mph4.8 kmh 29.64 in1003.7 mb - 0.00 in0.0 mm 0.00 in0.0 mm
10:30 AM 103.9°F39.9°C 50.5°F10.3°C 17% 0.1 mph SSE0.2 kmh SSE 1.0 mph1.6 kmh 29.64 in1003.7 mb - 0.00 in0.0 mm 0.00 in0.0 mm
10:45 AM 105.1°F40.6°C 49.9°F9.9°C 16% 0.6 mph ESE1.0 kmh ESE 4.0 mph6.4 kmh 29.63 in1003.4 mb - 0.00 in0.0 mm 0.00 in0.0 mm
11:00 AM 106.2°F41.2°C 49.0°F9.4°C 15% 1.8 mph ESE2.9 kmh ESE 3.0 mph4.8 kmh 29.63 in1003.4 mb - 0.00 in0.0 mm 0.00 in0.0 mm
11:15 AM 106.3°F41.3°C 49.1°F9.5°C 15% 0.1 mph ESE0.2 kmh ESE 1.0 mph1.6 kmh 29.63 in1003.4 mb - 0.00 in0.0 mm 0.00 in0.0 mm
11:30 AM 107.9°F42.2°C 48.4°F9.1°C 14% 0.1 mph ESE0.2 kmh ESE 1.0 mph1.6 kmh 29.63 in1003.4 mb - 0.00 in0.0 mm 0.00 in0.0 mm
11:45 AM 108.9°F42.7°C 47.3°F8.5°C 13% 0.2 mph SE0.3 kmh SE -- 29.62 in1003.0 mb - 0.00 in0.0 mm 0.00 in0.0 mm
12:00 PM 109.8°F43.2°C 48.0°F8.9°C 13% 1.5 mph S2.4 kmh S 3.0 mph4.8 kmh 29.62 in1003.0 mb - 0.00 in0.0 mm 0.00 in0.0 mm
12:15 PM 110.5°F43.6°C 48.5°F9.2°C 13% 0.1 mph WSW0.2 kmh WSW 2.0 mph3.2 kmh 29.61 in1002.7 mb - 0.00 in0.0 mm 0.00 in0.0 mm
12:30 PM 111.4°F44.1°C 47.0°F8.3°C 12% 0.3 mph S0.5 kmh S 1.0 mph1.6 kmh 29.61 in1002.7 mb - 0.00 in0.0 mm 0.00 in0.0 mm
12:45 PM 111.3°F44.1°C 44.6°F7.0°C 11% 2.5 mph E4.0 kmh E 3.0 mph4.8 kmh 29.60 in1002.4 mb - 0.00 in0.0 mm 0.00 in0.0 mm
01:00 PM 112.5°F44.7°C 47.9°F8.8°C 12% 0.1 mph WSW0.2 kmh WSW 1.0 mph1.6 kmh 29.60 in1002.4 mb - 0.00 in0.0 mm 0.00 in0.0 mm
01:15 PM 112.6°F44.8°C 43.1°F6.2°C 10% 2.6 mph SSE4.2 kmh SSE 7.0 mph11.3 kmh 29.59 in1002.0 mb - 0.00 in0.0 mm 0.00 in0.0 mm
01:30 PM 113.2°F45.1°C 43.6°F6.4°C 10% 0.3 mph ENE0.5 kmh ENE 2.0 mph3.2 kmh 29.58 in1001.7 mb - 0.00 in0.0 mm 0.00 in0.0 mm
01:45 PM 113.1°F45.1°C 43.6°F6.4°C 10% 2.0 mph SW3.2 kmh SW 5.0 mph8.0 kmh 29.57 in1001.4 mb - 0.00 in0.0 mm 0.00 in0.0 mm
02:00 PM 114.6°F45.9°C 44.6°F7.0°C 10% 1.9 mph SSE3.1 kmh SSE 3.0 mph4.8 kmh 29.57 in1001.4 mb - 0.00 in0.0 mm 0.00 in0.0 mm
02:15 PM 114.7°F45.9°C 44.7°F7.1°C 10% 1.3 mph WSW2.1 kmh WSW 4.0 mph6.4 kmh 29.57 in1001.4 mb - 0.00 in0.0 mm 0.00 in0.0 mm
02:30 PM 114.9°F46.1°C 42.1°F5.6°C 9% 3.6 mph WNW5.8 kmh WNW 7.0 mph11.3 kmh 29.55 in1000.7 mb - 0.00 in0.0 mm 0.00 in0.0 mm
02:45 PM 115.0°F46.1°C 44.9°F7.2°C 10% 3.5 mph WNW5.6 kmh WNW 5.0 mph8.0 kmh 29.55 in1000.7 mb - 0.00 in0.0 mm 0.00 in0.0 mm
03:00 PM 115.0°F46.1°C 44.9°F7.2°C 10% 3.1 mph SSW5.0 kmh SSW 8.0 mph12.9 kmh 29.55 in1000.7 mb - 0.00 in0.0 mm 0.00 in0.0 mm
03:15 PM 114.6°F45.9°C 44.7°F7.1°C 10% 1.9 mph NW3.1 kmh NW 3.0 mph4.8 kmh 29.54 in1000.3 mb - 0.00 in0.0 mm 0.00 in0.0 mm
03:30 PM 114.9°F46.1°C 42.2°F5.7°C 9% 3.1 mph WNW5.0 kmh WNW 3.0 mph4.8 kmh 29.54 in1000.3 mb - 0.00 in0.0 mm 0.00 in0.0 mm
03:45 PM 114.7°F45.9°C 38.9°F3.8°C 8% 2.4 mph WSW3.9 kmh WSW 6.0 mph9.7 kmh 29.52 in999.7 mb - 0.00 in0.0 mm 0.00 in0.0 mm
04:00 PM 115.7°F46.5°C 36.2°F2.3°C 7% 1.3 mph NW2.1 kmh NW 2.0 mph3.2 kmh 29.52 in999.7 mb - 0.00 in0.0 mm 0.00 in0.0 mm
04:15 PM 115.7°F46.5°C 36.3°F2.4°C 7% 0.3 mph W0.5 kmh W 2.0 mph3.2 kmh 29.52 in999.7 mb - 0.00 in0.0 mm 0.00 in0.0 mm
04:30 PM 115.9°F46.6°C 36.4°F2.4°C 7% 3.0 mph W4.8 kmh W 5.0 mph8.0 kmh 29.51 in999.3 mb - 0.00 in0.0 mm 0.00 in0.0 mm
04:45 PM 115.6°F46.4°C 32.3°F0.2°C 6% 2.2 mph WSW3.5 kmh WSW 7.0 mph11.3 kmh 29.51 in999.3 mb - 0.00 in0.0 mm 0.00 in0.0 mm
05:00 PM 115.0°F46.1°C 27.4°F-2.6°C 5% 0.4 mph W0.6 kmh W 2.0 mph3.2 kmh 29.50 in999.0 mb - 0.00 in0.0 mm 0.00 in0.0 mm
05:15 PM 114.1°F45.6°C 31.3°F-0.4°C 6% 2.4 mph W3.9 kmh W 4.0 mph6.4 kmh 29.51 in999.3 mb - 0.00 in0.0 mm 0.00 in0.0 mm
05:30 PM 113.4°F45.2°C 30.8°F-0.7°C 6% 4.4 mph W7.1 kmh W 6.0 mph9.7 kmh 29.50 in999.0 mb - 0.00 in0.0 mm 0.00 in0.0 mm
05:45 PM 113.1°F45.1°C 30.6°F-0.8°C 6% 2.1 mph S3.4 kmh S 6.0 mph9.7 kmh 29.50 in999.0 mb - 0.00 in0.0 mm 0.00 in0.0 mm
06:00 PM 112.6°F44.8°C 34.0°F1.1°C 7% 0.8 mph NW1.3 kmh NW 1.0 mph1.6 kmh 29.50 in999.0 mb - 0.00 in0.0 mm 0.00 in0.0 mm
06:15 PM 112.0°F44.4°C 33.6°F0.9°C 7% 1.8 mph W2.9 kmh W 2.0 mph3.2 kmh 29.51 in999.3 mb - 0.00 in0.0 mm 0.00 in0.0 mm
06:30 PM 111.5°F44.2°C 33.2°F0.7°C 7% 2.6 mph WSW4.2 kmh WSW 4.0 mph6.4 kmh 29.50 in999.0 mb - 0.00 in0.0 mm 0.00 in0.0 mm
06:45 PM 110.9°F43.8°C 32.8°F0.4°C 7% 1.8 mph WSW2.9 kmh WSW 4.0 mph6.4 kmh 29.51 in999.3 mb - 0.00 in0.0 mm 0.00 in0.0 mm
07:00 PM 110.0°F43.3°C 35.5°F1.9°C 8% 1.5 mph WSW2.4 kmh WSW 4.0 mph6.4 kmh 29.51 in999.3 mb - 0.00 in0.0 mm 0.00 in0.0 mm
07:15 PM 109.2°F42.9°C 34.9°F1.6°C 8% 3.8 mph WSW6.1 kmh WSW 7.0 mph11.3 kmh 29.52 in999.7 mb - 0.00 in0.0 mm 0.00 in0.0 mm
07:30 PM 108.6°F42.6°C 34.5°F1.4°C 8% 0.4 mph WSW0.6 kmh WSW 3.0 mph4.8 kmh 29.52 in999.7 mb - 0.00 in0.0 mm 0.00 in0.0 mm
07:45 PM 108.0°F42.2°C 34.1°F1.2°C 8% 2.9 mph WNW4.7 kmh WNW 6.0 mph9.7 kmh 29.52 in999.7 mb - 0.00 in0.0 mm 0.00 in0.0 mm
08:00 PM 107.4°F41.9°C 36.6°F2.6°C 9% 0.7 mph WSW1.1 kmh WSW 2.0 mph3.2 kmh 29.53 in1000.0 mb - 0.00 in0.0 mm 0.00 in0.0 mm
08:15 PM 106.3°F41.3°C 35.7°F2.1°C 9% 0.3 mph WSW0.5 kmh WSW 1.0 mph1.6 kmh 29.54 in1000.3 mb - 0.00 in0.0 mm 0.00 in0.0 mm
08:30 PM 105.7°F40.9°C 35.3°F1.8°C 9% Calm Calm -- 29.54 in1000.3 mb - 0.00 in0.0 mm 0.00 in0.0 mm
08:45 PM 103.2°F39.6°C 36.1°F2.3°C 10% Calm Calm -- 29.54 in1000.3 mb - 0.00 in0.0 mm 0.00 in0.0 mm
09:00 PM 100.9°F38.3°C 36.7°F2.6°C 11% Calm Calm -- 29.55 in1000.7 mb - 0.00 in0.0 mm 0.00 in0.0 mm
09:15 PM 99.1°F37.3°C 39.7°F4.3°C 13% Calm Calm -- 29.55 in1000.7 mb - 0.00 in0.0 mm 0.00 in0.0 mm
09:30 PM 97.4°F36.3°C 38.3°F3.5°C 13% Calm Calm -- 29.56 in1001.0 mb - 0.00 in0.0 mm 0.00 in0.0 mm
09:45 PM 97.1°F36.2°C 40.0°F4.4°C 14% Calm Calm -- 29.57 in1001.4 mb - 0.00 in0.0 mm 0.00 in0.0 mm
10:00 PM 96.2°F35.7°C 41.1°F5.1°C 15% Calm Calm -- 29.57 in1001.4 mb - 0.00 in0.0 mm 0.00 in0.0 mm
10:15 PM 95.8°F35.4°C 40.7°F4.8°C 15% Calm Calm -- 29.57 in1001.4 mb - 0.00 in0.0 mm 0.00 in0.0 mm
10:30 PM 96.2°F35.7°C 41.0°F5.0°C 15% Calm Calm -- 29.57 in1001.4 mb - 0.00 in0.0 mm 0.00 in0.0 mm
10:45 PM 97.9°F36.6°C 36.7°F2.6°C 12% 0.4 mph W0.6 kmh W 1.0 mph1.6 kmh 29.57 in1001.4 mb - 0.00 in0.0 mm 0.00 in0.0 mm
11:00 PM 103.0°F39.4°C 38.4°F3.6°C 11% 0.6 mph W1.0 kmh W 5.0 mph8.0 kmh 29.57 in1001.4 mb - 0.00 in0.0 mm 0.00 in0.0 mm
11:15 PM 104.5°F40.3°C 37.1°F2.8°C 10% 1.8 mph W2.9 kmh W 2.0 mph3.2 kmh 29.57 in1001.4 mb - 0.00 in0.0 mm 0.00 in0.0 mm
11:30 PM 104.7°F40.4°C 39.7°F4.3°C 11% 1.6 mph SW2.6 kmh SW 4.0 mph6.4 kmh 29.57 in1001.4 mb - 0.00 in0.0 mm 0.00 in0.0 mm
11:45 PM 104.8°F40.4°C 39.7°F4.3°C 11% 0.9 mph WSW1.4 kmh WSW 3.0 mph4.8 kmh 29.57 in1001.4 mb - 0.00 in0.0 mm 0.00 in0.0 mm